Terminal Aerodrome Forecast
Issued by NWS Cleveland, OH

Home | Current Version | Previous Version | Graphics & Text | Print | Product List | Glossary On
Versions: 1 2 3 4 5 6 7 8 9 10 11 12 13 14 15 16 17 18 19 20 21 22 23 24 25 26 27
415
FTUS41 KCLE 231400 AAB
TAFCLE
TAF AMD
KCLE 231400Z 2314/2418 27006KT P6SM SCT150
     FM231800 36008KT P6SM SCT050 BKN100
     FM232300 02012KT P6SM SCT025 OVC050
     FM240200 04010KT P6SM BKN010 OVC025
     FM241100 04008KT P6SM SCT010=

USA.gov is the U.S. government's official web portal to all federal, state and local government web resources and services.